createdAt,value
2019-04-25T00:00:48.909Z,97024.19
2019-04-25T00:02:16.165Z,97017.19
2019-04-25T00:03:22.322Z,97017.19
2019-04-25T00:04:25.137Z,97004.50
2019-04-25T00:05:27.864Z,96998.70
2019-04-25T00:06:32.141Z,96998.70
2019-04-25T00:07:34.840Z,97002.09
2019-04-25T00:08:37.504Z,97002.09
2019-04-25T00:09:58.682Z,97008.23
2019-04-25T00:11:02.649Z,97012.17
2019-04-25T00:12:05.779Z,97022.69
2019-04-25T00:13:08.838Z,97022.69
2019-04-25T00:14:13.295Z,97028.92
2019-04-25T00:15:16.333Z,97028.92
2019-04-25T00:16:27.167Z,97029.81
2019-04-25T00:17:31.487Z,97026.88
2019-04-25T00:18:38.517Z,97037.19
2019-04-25T00:19:42.486Z,97037.19
2019-04-25T00:20:50.421Z,97038.78
2019-04-25T00:22:12.168Z,97037.63
2019-04-25T00:23:18.309Z,97043.19
2019-04-25T00:24:30.082Z,97035.50
2019-04-25T00:25:51.332Z,97026.91
2019-04-25T00:26:54.049Z,97036.18
2019-04-25T00:27:56.778Z,97035.48
2019-04-25T00:28:59.722Z,97028.47
2019-04-25T00:30:02.849Z,97033.12
2019-04-25T00:31:06.260Z,97033.12
2019-04-25T00:32:08.884Z,97034.25
2019-04-25T00:33:11.657Z,97027.69
2019-04-25T00:34:14.382Z,97024.31
2019-04-25T00:35:17.823Z,97021.25
2019-04-25T00:36:21.788Z,97031.98
2019-04-25T00:37:24.623Z,97035.83
2019-04-25T00:38:31.963Z,97040.91
2019-04-25T00:39:34.607Z,97039.00
2019-04-25T00:40:37.720Z,97040.70
2019-04-25T00:41:42.362Z,97040.70
2019-04-25T00:42:45.132Z,97037.63
2019-04-25T00:43:47.857Z,97033.67
2019-04-25T00:44:51.546Z,97026.89
2019-04-25T00:45:55.132Z,97022.16
2019-04-25T00:46:57.789Z,97020.45
2019-04-25T00:48:03.986Z,97016.16
2019-04-25T00:49:05.174Z,97011.97
2019-04-25T00:50:07.900Z,97022.36
2019-04-25T00:51:11.807Z,97021.70
2019-04-25T00:52:14.516Z,97021.70
2019-04-25T00:53:17.259Z,97031.98
2019-04-25T00:54:20.298Z,97033.43
2019-04-25T00:55:28.387Z,97032.17
2019-04-25T00:56:27.355Z,97032.17
2019-04-25T00:57:31.923Z,97041.37
2019-04-25T00:58:45.289Z,97043.72
2019-04-25T01:00:03.145Z,97036.58
2019-04-25T01:01:31.715Z,97036.58
2019-04-25T01:02:38.362Z,97053.66
2019-04-25T01:03:44.115Z,97054.39
2019-04-25T01:04:47.248Z,97050.68
2019-04-25T01:05:49.895Z,97050.68
2019-04-25T01:06:53.222Z,97056.60
2019-04-25T01:07:56.750Z,97065.75
2019-04-25T01:08:59.566Z,97058.73
2019-04-25T01:10:02.619Z,97058.73
2019-04-25T01:11:05.448Z,97079.42
2019-04-25T01:12:09.015Z,97070.00
2019-04-25T01:13:11.989Z,97070.00
2019-04-25T01:14:14.981Z,97063.77
2019-04-25T01:15:18.146Z,97067.78
2019-04-25T01:16:22.035Z,97067.78
2019-04-25T01:17:24.798Z,97071.52
2019-04-25T01:18:27.519Z,97067.06
2019-04-25T01:19:34.435Z,97070.22
2019-04-25T01:20:37.175Z,97074.13
2019-04-25T01:21:39.794Z,97081.68
2019-04-25T01:22:44.052Z,97086.22
2019-04-25T01:23:47.282Z,97078.50
2019-04-25T01:24:50.164Z,97082.80
2019-04-25T01:25:53.734Z,97076.61
2019-04-25T01:27:01.488Z,97075.59
2019-04-25T01:28:04.208Z,97075.59
2019-04-25T01:29:08.678Z,97094.47
2019-04-25T01:30:11.333Z,97094.47
2019-04-25T01:31:16.387Z,97088.27
2019-04-25T01:32:25.007Z,97086.69
2019-04-25T01:33:28.079Z,97086.69
2019-04-25T01:34:44.263Z,97082.15
2019-04-25T01:36:08.545Z,97080.47
2019-04-25T01:37:31.666Z,97084.75
2019-04-25T01:38:56.153Z,97077.30
2019-04-25T01:40:14.759Z,97076.61
2019-04-25T01:41:28.772Z,97082.05
2019-04-25T01:42:51.685Z,97071.31
2019-04-25T01:44:00.761Z,97078.33
2019-04-25T01:45:04.057Z,97085.47
2019-04-25T01:46:09.203Z,97085.47
2019-04-25T01:47:11.914Z,97088.73
2019-04-25T01:48:14.623Z,97095.31
2019-04-25T01:49:17.589Z,97105.84
2019-04-25T01:50:20.268Z,97097.08
2019-04-25T01:51:24.014Z,97097.08
2019-04-25T01:52:26.812Z,97113.03
2019-04-25T01:53:29.508Z,97109.20
2019-04-25T01:54:33.837Z,97110.67
2019-04-25T01:55:36.886Z,97110.67
2019-04-25T01:56:39.580Z,97114.97
2019-04-25T01:57:45.057Z,97114.97
2019-04-25T01:58:47.004Z,97113.48
2019-04-25T01:59:49.883Z,97116.56
2019-04-25T02:00:54.727Z,97116.56
2019-04-25T02:01:57.197Z,97116.67
2019-04-25T02:02:59.920Z,97115.75
2019-04-25T02:04:03.595Z,97113.28
2019-04-25T02:05:08.134Z,97115.19
2019-04-25T02:06:10.846Z,97117.12
2019-04-25T02:07:13.600Z,97113.48
2019-04-25T02:08:16.506Z,97106.25
2019-04-25T02:09:20.779Z,97106.25
2019-04-25T02:10:23.655Z,97097.11
2019-04-25T02:11:47.931Z,97105.59
2019-04-25T02:12:55.593Z,97103.98
2019-04-25T02:13:59.363Z,97107.25
2019-04-25T02:15:05.908Z,97108.73
2019-04-25T02:16:10.080Z,97104.43
2019-04-25T02:17:14.134Z,97106.14
2019-04-25T02:18:19.687Z,97103.96
2019-04-25T02:19:24.089Z,97103.96
2019-04-25T02:20:26.795Z,97105.89
2019-04-25T02:21:29.780Z,97100.92
2019-04-25T02:22:33.925Z,97105.55
2019-04-25T02:23:36.849Z,97103.63
2019-04-25T02:24:39.489Z,97107.23
2019-04-25T02:25:42.156Z,97103.61
2019-04-25T02:26:45.035Z,97105.30
2019-04-25T02:27:48.014Z,97104.87
2019-04-25T02:28:50.658Z,97108.16
2019-04-25T02:29:55.233Z,97102.38
2019-04-25T02:31:00.756Z,97110.39
2019-04-25T02:32:08.596Z,97111.30
2019-04-25T02:33:09.266Z,97111.30
2019-04-25T02:34:17.489Z,97112.31
2019-04-25T02:35:19.080Z,97112.31
2019-04-25T02:36:21.793Z,97111.64
2019-04-25T02:37:25.678Z,97111.64
2019-04-25T02:38:28.914Z,97110.73
2019-04-25T02:39:36.759Z,97113.45
2019-04-25T02:40:36.794Z,97113.45
2019-04-25T02:41:39.449Z,97115.98
2019-04-25T02:42:44.223Z,97114.05
2019-04-25T02:43:48.788Z,97116.81
2019-04-25T02:45:06.528Z,97112.14
2019-04-25T02:46:25.820Z,97115.06
2019-04-25T02:47:58.094Z,97115.27
2019-04-25T02:49:39.726Z,97127.01
2019-04-25T02:51:16.679Z,97119.23
2019-04-25T02:52:24.973Z,97119.23
2019-04-25T02:53:36.590Z,97119.91
2019-04-25T02:54:38.261Z,97119.91
2019-04-25T02:55:44.606Z,97121.51
2019-04-25T02:56:47.900Z,97131.34
2019-04-25T02:57:54.196Z,97131.34
2019-04-25T02:59:00.393Z,97139.78
2019-04-25T03:00:05.974Z,97127.47
2019-04-25T03:01:19.465Z,97122.39
2019-04-25T03:02:15.634Z,97122.39
2019-04-25T03:03:18.410Z,97125.58
2019-04-25T03:04:21.469Z,97125.58
2019-04-25T03:05:25.520Z,97122.73
2019-04-25T03:06:28.253Z,97126.02
2019-04-25T03:07:30.925Z,97123.72
2019-04-25T03:08:35.464Z,97124.63
2019-04-25T03:09:38.057Z,97120.36
2019-04-25T03:10:41.126Z,97120.36
2019-04-25T03:11:45.213Z,97119.89
2019-04-25T03:12:48.574Z,97115.92
2019-04-25T03:13:51.221Z,97116.71
2019-04-25T03:14:55.014Z,97116.71
2019-04-25T03:16:02.406Z,97114.31
2019-04-25T03:17:08.252Z,97108.38
2019-04-25T03:18:12.416Z,97113.22
2019-04-25T03:19:45.365Z,97107.02
2019-04-25T03:21:13.500Z,97107.59
2019-04-25T03:22:15.261Z,97106.20
2019-04-25T03:23:37.149Z,97100.67
2019-04-25T03:24:39.881Z,97103.86
2019-04-25T03:25:43.468Z,97106.59
2019-04-25T03:26:46.223Z,97106.59
2019-04-25T03:27:48.922Z,97114.49
2019-04-25T03:28:51.580Z,97109.64
2019-04-25T03:29:54.521Z,97109.64
2019-04-25T03:30:57.364Z,97110.03
2019-04-25T03:32:00.890Z,97115.56
2019-04-25T03:33:09.724Z,97105.30
2019-04-25T03:34:13.803Z,97121.59
2019-04-25T03:35:13.631Z,97121.59
2019-04-25T03:36:17.519Z,97118.75
2019-04-25T03:37:20.191Z,97126.20
2019-04-25T03:38:24.276Z,97118.17
2019-04-25T03:39:27.982Z,97114.00
2019-04-25T03:40:30.623Z,97120.93
2019-04-25T03:41:34.082Z,97125.88
2019-04-25T03:42:37.565Z,97122.25
2019-04-25T03:43:40.706Z,97122.25
2019-04-25T03:44:43.848Z,97124.39
2019-04-25T03:45:46.574Z,97123.29
2019-04-25T03:46:49.189Z,97124.88
2019-04-25T03:47:53.183Z,97129.73
2019-04-25T03:48:56.271Z,97124.90
2019-04-25T03:49:59.011Z,97127.27
2019-04-25T03:51:02.796Z,97127.27
2019-04-25T03:52:08.547Z,97128.98
2019-04-25T03:53:12.186Z,97128.98
2019-04-25T03:54:16.251Z,97136.66
2019-04-25T03:55:19.452Z,97136.66
2019-04-25T03:56:22.502Z,97143.34
2019-04-25T03:57:25.121Z,97143.34
2019-04-25T03:58:27.839Z,97136.94
2019-04-25T03:59:30.487Z,97136.94
2019-04-25T04:00:34.196Z,97145.41
2019-04-25T04:01:37.827Z,97150.48
2019-04-25T04:02:40.526Z,97150.48
2019-04-25T04:03:44.045Z,97148.71
2019-04-25T04:04:46.828Z,97154.91
2019-04-25T04:05:49.562Z,97154.69
2019-04-25T04:06:53.786Z,97155.12
2019-04-25T04:07:57.401Z,97154.00
2019-04-25T04:09:00.089Z,97146.64
2019-04-25T04:10:04.540Z,97152.75
2019-04-25T04:11:10.194Z,97141.00
2019-04-25T04:12:14.474Z,97146.88
2019-04-25T04:13:17.568Z,97151.18
2019-04-25T04:14:20.886Z,97150.40
2019-04-25T04:15:25.079Z,97149.57
2019-04-25T04:16:34.224Z,97146.88
2019-04-25T04:17:58.647Z,97155.72
2019-04-25T04:19:01.753Z,97155.72
2019-04-25T04:20:41.494Z,97149.25
2019-04-25T04:22:05.521Z,97150.95
2019-04-25T04:23:16.437Z,97150.95
2019-04-25T04:24:34.053Z,97151.65
2019-04-25T04:25:36.635Z,97147.47
2019-04-25T04:26:40.174Z,97147.47
2019-04-25T04:27:43.798Z,97144.85
2019-04-25T04:28:46.545Z,97154.59
2019-04-25T04:29:49.169Z,97149.27
2019-04-25T04:30:51.803Z,97149.27
2019-04-25T04:31:55.199Z,97145.08
2019-04-25T04:32:58.282Z,97150.05
2019-04-25T04:34:00.942Z,97147.89
2019-04-25T04:35:03.561Z,97152.30
2019-04-25T04:36:07.302Z,97144.86
2019-04-25T04:37:14.829Z,97149.82
2019-04-25T04:38:18.143Z,97155.50
2019-04-25T04:39:20.818Z,97159.67
2019-04-25T04:40:24.250Z,97156.40
2019-04-25T04:41:27.683Z,97155.73
2019-04-25T04:42:30.407Z,97155.73
2019-04-25T04:43:35.703Z,97157.76
2019-04-25T04:44:38.331Z,97153.91
2019-04-25T04:45:43.876Z,97158.09
2019-04-25T04:46:45.367Z,97161.69
2019-04-25T04:47:48.506Z,97160.45
2019-04-25T04:48:51.141Z,97158.63
2019-04-25T04:49:57.109Z,97159.58
2019-04-25T04:50:59.729Z,97156.97
2019-04-25T04:52:11.600Z,97159.91
2019-04-25T04:53:17.264Z,97159.67
2019-04-25T04:54:23.099Z,97164.64
2019-04-25T04:55:26.290Z,97164.64
2019-04-25T04:56:29.365Z,97167.13
2019-04-25T04:57:35.805Z,97157.19
2019-04-25T04:58:37.339Z,97172.44
2019-04-25T04:59:43.856Z,97159.05
2019-04-25T05:00:46.772Z,97169.50
2019-04-25T05:02:16.016Z,97168.37
2019-04-25T05:03:34.216Z,97169.62
2019-04-25T05:05:04.711Z,97177.99
2019-04-25T05:06:14.857Z,97176.28
2019-04-25T05:07:37.057Z,97178.23
2019-04-25T05:08:44.067Z,97178.46
2019-04-25T05:09:47.368Z,97178.46
2019-04-25T05:10:50.215Z,97180.47
2019-04-25T05:11:54.019Z,97178.23
2019-04-25T05:12:56.687Z,97181.08
2019-04-25T05:14:00.932Z,97180.87
2019-04-25T05:15:03.814Z,97180.87
2019-04-25T05:16:06.572Z,97181.99
2019-04-25T05:17:09.338Z,97180.98
2019-04-25T05:18:12.719Z,97182.89
2019-04-25T05:19:18.112Z,97188.11
2019-04-25T05:20:21.047Z,97188.11
2019-04-25T05:21:25.130Z,97182.02
2019-04-25T05:22:27.958Z,97182.02
2019-04-25T05:23:30.581Z,97176.02
2019-04-25T05:24:33.883Z,97178.73
2019-04-25T05:25:36.673Z,97177.58
2019-04-25T05:26:40.771Z,97177.58
2019-04-25T05:28:00.108Z,97182.67
2019-04-25T05:28:57.425Z,97183.48
2019-04-25T05:30:00.647Z,97186.74
2019-04-25T05:44:10.539Z,97196.30
2019-04-25T05:45:15.114Z,97193.81
2019-04-25T05:46:17.716Z,97189.02
2019-04-25T05:47:22.565Z,97189.02
2019-04-25T05:48:26.317Z,97191.23
2019-04-25T05:49:29.555Z,97197.47
2019-04-25T05:50:33.897Z,97194.95
2019-04-25T05:51:36.609Z,97193.28
2019-04-25T05:52:39.346Z,97190.66
2019-04-25T05:53:43.322Z,97190.66
2019-04-25T05:54:46.070Z,97190.16
2019-04-25T05:55:49.393Z,97189.16
2019-04-25T05:56:53.661Z,97186.08
2019-04-25T05:57:56.618Z,97190.92
2019-04-25T05:58:59.924Z,97187.84
2019-04-25T06:00:03.663Z,97182.86
2019-04-25T06:01:06.596Z,97177.80
2019-04-25T06:02:09.765Z,97177.80
2019-04-25T06:03:13.703Z,97186.98
2019-04-25T06:04:19.048Z,97177.88
2019-04-25T06:05:23.415Z,97177.88
2019-04-25T06:06:36.585Z,97174.31
2019-04-25T06:07:39.109Z,97179.23
2019-04-25T06:08:48.210Z,97179.23
2019-04-25T06:10:14.413Z,97185.73
2019-04-25T06:11:39.881Z,97185.73
2019-04-25T06:13:04.361Z,97193.00
2019-04-25T06:14:11.014Z,97193.00
2019-04-25T06:15:13.894Z,97192.59
2019-04-25T06:16:28.273Z,97190.63
2019-04-25T06:17:49.686Z,97187.28
2019-04-25T06:19:13.252Z,97192.41
2019-04-25T06:20:09.403Z,97184.33
2019-04-25T06:21:13.329Z,97191.90
2019-04-25T06:22:20.924Z,97179.98
2019-04-25T06:23:40.776Z,97179.20
2019-04-25T06:24:57.023Z,97180.70
2019-04-25T06:25:59.714Z,97180.06
2019-04-25T06:27:26.916Z,97183.72
2019-04-25T06:28:35.471Z,97183.72
2019-04-25T06:29:39.434Z,97179.50
2019-04-25T06:30:44.215Z,97177.70
2019-04-25T06:31:47.456Z,97177.70
2019-04-25T06:32:50.133Z,97187.68
2019-04-25T06:33:53.932Z,97197.79
2019-04-25T06:34:57.112Z,97192.34
2019-04-25T06:35:59.775Z,97192.34
2019-04-25T06:37:04.375Z,97197.59
2019-04-25T06:38:06.971Z,97194.02
2019-04-25T06:39:09.693Z,97201.98
2019-04-25T06:40:13.738Z,97198.88
2019-04-25T06:41:16.685Z,97201.06
2019-04-25T06:42:23.049Z,97200.98
2019-04-25T06:43:30.148Z,97194.09
2019-04-25T06:44:38.425Z,97197.67
2019-04-25T06:46:00.437Z,97201.62
2019-04-25T06:47:21.179Z,97192.80
2019-04-25T06:48:43.335Z,97202.55
2019-04-25T06:49:46.532Z,97202.55
2019-04-25T06:50:49.290Z,97206.05
2019-04-25T06:51:54.611Z,97214.55
2019-04-25T06:52:57.761Z,97209.59
2019-04-25T06:54:03.397Z,97215.98
2019-04-25T06:55:06.161Z,97215.98
2019-04-25T06:56:08.794Z,97215.55
2019-04-25T06:57:11.500Z,97215.12
2019-04-25T06:58:14.630Z,97215.12
2019-04-25T06:59:17.722Z,97217.87
2019-04-25T07:00:22.432Z,97207.09
2019-04-25T07:01:26.689Z,97215.36
2019-04-25T07:02:33.572Z,97223.96
2019-04-25T07:03:36.932Z,97213.77
2019-04-25T07:04:41.715Z,97216.72
2019-04-25T07:05:45.040Z,97216.72
2019-04-25T07:06:49.455Z,97221.95
2019-04-25T07:07:55.193Z,97221.95
2019-04-25T07:09:03.100Z,97223.33
2019-04-25T07:10:05.917Z,97228.87
2019-04-25T07:11:08.643Z,97232.67
2019-04-25T07:12:14.029Z,97231.38
2019-04-25T07:13:16.793Z,97228.28
2019-04-25T07:14:20.055Z,97225.33
2019-04-25T07:15:24.731Z,97225.33
2019-04-25T07:16:27.690Z,97240.38
2019-04-25T07:17:30.629Z,97237.94
2019-04-25T07:18:39.065Z,97241.52
2019-04-25T07:19:54.151Z,97227.28
2019-04-25T07:20:58.269Z,97243.89
2019-04-25T07:22:00.901Z,97244.23
2019-04-25T07:23:04.358Z,97247.19
2019-04-25T07:24:07.259Z,97247.85
2019-04-25T07:25:13.222Z,97249.92
2019-04-25T07:26:39.454Z,97243.75
2019-04-25T07:28:07.256Z,97242.94
2019-04-25T07:29:29.026Z,97242.94
2019-04-25T07:30:49.981Z,97246.55
2019-04-25T07:32:20.069Z,97259.92
2019-04-25T07:33:26.168Z,97259.92
2019-04-25T07:34:29.299Z,97265.61
2019-04-25T07:35:33.767Z,97265.91
2019-04-25T07:36:37.348Z,97267.50
2019-04-25T07:37:55.042Z,97262.96
2019-04-25T07:39:07.580Z,97263.21
2019-04-25T07:40:04.134Z,97257.19
2019-04-25T07:41:09.777Z,97256.06
2019-04-25T07:42:16.276Z,97245.48
2019-04-25T07:43:23.427Z,97247.44
2019-04-25T07:44:38.221Z,97251.92
2019-04-25T07:45:34.572Z,97252.42
2019-04-25T07:46:39.487Z,97252.42
2019-04-25T07:47:44.117Z,97262.00
2019-04-25T07:48:47.425Z,97262.00
2019-04-25T07:49:50.719Z,97263.06
2019-04-25T07:50:54.161Z,97262.30
2019-04-25T07:51:57.355Z,97266.47
2019-04-25T07:53:00.503Z,97262.72
2019-04-25T07:54:04.523Z,97269.47
2019-04-25T07:55:08.132Z,97269.47
2019-04-25T07:56:11.966Z,97269.39
2019-04-25T07:57:17.215Z,97269.39
2019-04-25T07:58:20.677Z,97259.50
2019-04-25T07:59:23.929Z,97251.73
2019-04-25T08:00:29.668Z,97251.73
2019-04-25T08:01:33.519Z,97249.41
2019-04-25T08:02:37.526Z,97264.28
2019-04-25T08:03:43.899Z,97262.19
2019-04-25T08:04:46.713Z,97262.19
2019-04-25T08:05:51.027Z,97269.47
2019-04-25T08:06:54.964Z,97269.47
2019-04-25T08:07:57.733Z,97265.35
2019-04-25T08:09:00.526Z,97271.53
2019-04-25T08:10:05.013Z,97265.77
2019-04-25T08:11:08.026Z,97262.23
2019-04-25T08:12:11.291Z,97260.94
2019-04-25T08:13:14.395Z,97262.09
2019-04-25T08:14:25.772Z,97262.94
2019-04-25T08:15:40.912Z,97262.94
2019-04-25T08:16:45.099Z,97260.06
2019-04-25T08:18:17.280Z,97273.17
2019-04-25T08:19:20.201Z,97268.03
2019-04-25T08:20:23.667Z,97267.20
2019-04-25T08:21:26.492Z,97267.20
2019-04-25T08:22:30.285Z,97265.46
2019-04-25T08:23:36.690Z,97265.46
2019-04-25T08:24:39.112Z,97272.15
2019-04-25T08:25:43.284Z,97272.87
2019-04-25T08:26:50.026Z,97274.53
2019-04-25T08:27:53.551Z,97274.53
2019-04-25T08:28:58.364Z,97279.27
2019-04-25T08:30:04.238Z,97280.64
2019-04-25T08:31:07.026Z,97282.88
2019-04-25T08:32:11.129Z,97276.80
2019-04-25T08:33:14.013Z,97276.80
2019-04-25T08:34:17.651Z,97272.81
2019-04-25T08:35:21.582Z,97271.41
2019-04-25T08:36:31.194Z,97271.41
2019-04-25T08:37:34.431Z,97268.42
2019-04-25T08:38:38.220Z,97282.97
2019-04-25T08:39:45.222Z,97282.97
2019-04-25T08:40:48.670Z,97275.22
2019-04-25T08:41:53.743Z,97275.22
2019-04-25T08:42:56.764Z,97275.34
2019-04-25T08:44:06.751Z,97269.61
2019-04-25T08:45:09.632Z,97273.11
2019-04-25T08:46:14.009Z,97267.88
2019-04-25T08:47:17.003Z,97257.02
2019-04-25T08:48:23.804Z,97266.63
2019-04-25T08:49:45.740Z,97264.66
2019-04-25T08:50:58.106Z,97257.84
2019-04-25T08:52:01.084Z,97263.58
2019-04-25T08:53:05.423Z,97263.58
2019-04-25T08:54:18.774Z,97257.28
2019-04-25T08:55:39.043Z,97251.84
2019-04-25T08:56:42.446Z,97249.59
2019-04-25T08:58:03.723Z,97249.59
2019-04-25T08:59:37.308Z,97254.30
2019-04-25T09:00:44.704Z,97260.74
2019-04-25T09:02:06.632Z,97264.00
2019-04-25T09:03:14.309Z,97264.00
2019-04-25T09:04:38.030Z,97277.64
2019-04-25T09:05:45.964Z,97262.39
2019-04-25T09:06:53.542Z,97258.00
2019-04-25T09:07:56.000Z,97256.03
2019-04-25T09:09:00.681Z,97284.46
2019-04-25T09:10:06.647Z,97284.46
2019-04-25T09:11:09.465Z,97283.34
2019-04-25T09:12:13.945Z,97281.20
2019-04-25T09:13:20.018Z,97281.20
2019-04-25T09:14:22.664Z,97280.70
2019-04-25T09:15:26.079Z,97295.87
2019-04-25T09:16:28.991Z,97295.87
2019-04-25T09:17:35.842Z,97292.12
2019-04-25T09:18:39.002Z,97292.12
2019-04-25T09:19:42.044Z,97294.99
2019-04-25T09:20:46.596Z,97294.99
2019-04-25T09:21:49.718Z,97264.01
2019-04-25T09:22:54.266Z,97262.98
2019-04-25T09:23:57.223Z,97271.77
2019-04-25T09:25:00.385Z,97271.77
2019-04-25T09:26:06.250Z,97244.21
2019-04-25T09:27:10.190Z,97252.89
2019-04-25T09:28:20.409Z,97244.40
2019-04-25T09:29:23.553Z,97244.40
2019-04-25T09:30:26.618Z,97245.29
2019-04-25T09:31:29.386Z,97245.29
2019-04-25T09:32:35.682Z,97253.20
2019-04-25T09:33:39.137Z,97262.22
2019-04-25T09:34:43.740Z,97262.22
2019-04-25T09:35:46.967Z,97247.07
2019-04-25T09:36:49.827Z,97265.55
2019-04-25T09:37:53.551Z,97251.23
2019-04-25T09:38:59.631Z,97257.49
2019-04-25T09:40:11.714Z,97261.00
2019-04-25T09:41:16.202Z,97261.98
2019-04-25T09:42:21.127Z,97246.30
2019-04-25T09:43:24.476Z,97241.66
2019-04-25T09:44:35.930Z,97247.95
2019-04-25T09:45:53.273Z,97247.95
2019-04-25T09:46:56.639Z,97247.78
2019-04-25T09:48:04.674Z,97238.98
2019-04-25T09:49:23.719Z,97225.27
2019-04-25T09:50:38.661Z,97225.27
2019-04-25T09:51:48.304Z,97225.55
2019-04-25T09:52:54.160Z,97217.46
2019-04-25T09:54:07.833Z,97217.63
2019-04-25T09:55:36.095Z,97225.05
2019-04-25T09:56:46.065Z,97225.05
2019-04-25T09:57:56.357Z,97230.22
2019-04-25T10:00:57.589Z,97229.44
2019-04-25T10:02:05.173Z,97238.14
2019-04-25T10:03:05.856Z,97242.00
2019-04-25T10:04:09.108Z,97241.11
2019-04-25T10:05:11.907Z,97241.11
2019-04-25T10:06:14.844Z,97234.30
2019-04-25T10:07:17.541Z,97236.86
2019-04-25T10:08:20.934Z,97231.02
2019-04-25T10:09:24.707Z,97231.02
2019-04-25T10:10:27.814Z,97220.16
2019-04-25T10:11:30.647Z,97216.68
2019-04-25T10:12:34.176Z,97216.68
2019-04-25T10:13:37.604Z,97215.65
2019-04-25T10:14:49.155Z,97224.48
2019-04-25T10:15:54.540Z,97225.34
2019-04-25T10:17:00.304Z,97227.02
2019-04-25T10:18:03.781Z,97229.92
2019-04-25T10:19:13.272Z,97225.43
2019-04-25T10:20:33.271Z,97225.43
2019-04-25T10:21:34.644Z,97205.89
2019-04-25T10:22:38.074Z,97212.02
2019-04-25T10:23:43.619Z,97212.02
2019-04-25T10:24:57.594Z,97210.78
2019-04-25T10:25:53.815Z,97225.39
2019-04-25T10:27:03.738Z,97225.39
2019-04-25T10:28:06.493Z,97232.33
2019-04-25T10:29:09.343Z,97216.39
2019-04-25T10:43:04.027Z,97191.27
2019-04-25T10:44:08.510Z,97176.95
2019-04-25T10:45:22.872Z,97176.95
2019-04-25T10:46:19.067Z,97188.23
2019-04-25T10:47:21.759Z,97187.28
2019-04-25T10:48:25.389Z,97172.06
2019-04-25T10:49:28.616Z,97166.64
2019-04-25T10:50:35.644Z,97171.11
2019-04-25T10:51:40.835Z,97170.09
2019-04-25T10:52:45.806Z,97177.43
2019-04-25T10:53:48.821Z,97176.33
2019-04-25T10:54:52.619Z,97167.48
2019-04-25T10:55:56.992Z,97188.28
2019-04-25T10:57:03.230Z,97188.28
2019-04-25T10:58:08.288Z,97168.66
2019-04-25T10:59:11.015Z,97169.66
2019-04-25T11:00:15.957Z,97165.00
2019-04-25T11:01:19.164Z,97156.90
2019-04-25T11:02:23.600Z,97156.30
2019-04-25T11:03:48.812Z,97156.30
2019-04-25T11:04:57.921Z,97160.89
2019-04-25T11:06:00.827Z,97152.01
2019-04-25T11:07:04.144Z,97164.81
2019-04-25T11:08:10.664Z,97155.96
2019-04-25T11:09:13.841Z,97157.14
2019-04-25T11:10:17.672Z,97157.14
2019-04-25T11:11:29.852Z,97150.66
2019-04-25T11:12:34.765Z,97153.41
2019-04-25T11:13:37.799Z,97153.41
2019-04-25T11:14:40.966Z,97146.31
2019-04-25T11:15:44.904Z,97150.82
2019-04-25T11:16:48.382Z,97150.82
2019-04-25T11:17:51.398Z,97151.95
2019-04-25T11:18:54.929Z,97149.98
2019-04-25T11:19:59.959Z,97140.53
2019-04-25T11:21:06.113Z,97132.63
2019-04-25T11:22:09.721Z,97132.63
2019-04-25T11:23:16.006Z,97138.36
2019-04-25T11:24:18.404Z,97138.36
2019-04-25T11:25:21.927Z,97115.50
2019-04-25T11:26:27.562Z,97124.36
2019-04-25T11:27:36.243Z,97124.36
2019-04-25T11:28:42.516Z,97114.62
2019-04-25T11:29:48.577Z,97112.22
2019-04-25T11:30:53.929Z,97098.77
2019-04-25T11:31:56.910Z,97098.77
2019-04-25T11:33:00.047Z,97125.03
2019-04-25T11:34:04.239Z,97101.62
2019-04-25T11:35:07.507Z,97101.62
2019-04-25T11:36:10.799Z,97129.59
2019-04-25T11:37:14.686Z,97129.59
2019-04-25T11:38:24.025Z,97119.95
2019-04-25T11:39:46.051Z,97119.95
2019-04-25T11:41:03.957Z,97127.45
2019-04-25T11:42:13.127Z,97116.02
2019-04-25T11:43:28.135Z,97116.02
2019-04-25T11:44:39.002Z,97123.05
2019-04-25T11:45:42.542Z,97123.05
2019-04-25T11:46:47.042Z,97141.86
2019-04-25T11:47:49.808Z,97145.83
2019-04-25T11:48:54.360Z,97158.14
2019-04-25T11:50:03.953Z,97128.92
2019-04-25T11:51:07.099Z,97128.92
2019-04-25T11:52:26.887Z,97153.34
2019-04-25T11:53:24.749Z,97153.78
2019-04-25T11:54:31.787Z,97133.48
2019-04-25T11:55:35.066Z,97127.67
2019-04-25T11:56:40.258Z,97131.98
2019-04-25T11:57:49.223Z,97135.33
2019-04-25T11:58:51.491Z,97133.16
2019-04-25T11:59:55.711Z,97133.16
2019-04-25T12:01:01.046Z,97136.13
2019-04-25T12:02:04.644Z,97136.25
2019-04-25T12:03:08.742Z,97136.11
2019-04-25T12:04:13.161Z,97123.98
2019-04-25T12:05:16.654Z,97124.75
2019-04-25T12:06:19.507Z,97123.34
2019-04-25T12:07:24.670Z,97121.54
2019-04-25T12:08:27.505Z,97128.69
2019-04-25T12:09:33.768Z,97127.43
2019-04-25T12:10:37.703Z,97121.20
2019-04-25T12:11:40.558Z,97137.74
2019-04-25T12:12:47.205Z,97137.74
2019-04-25T12:13:49.247Z,97119.52
2019-04-25T12:14:51.971Z,97120.98
2019-04-25T12:16:00.983Z,97122.75
2019-04-25T12:17:03.929Z,97117.92
2019-04-25T12:18:06.791Z,97109.06
2019-04-25T12:19:09.775Z,97107.42
2019-04-25T12:20:14.129Z,97111.31
2019-04-25T12:21:19.628Z,97103.54
2019-04-25T12:22:26.064Z,97103.54
2019-04-25T12:23:29.268Z,97111.73
2019-04-25T12:24:34.825Z,97117.40
2019-04-25T12:25:37.693Z,97117.40
2019-04-25T12:26:40.592Z,97112.20
2019-04-25T12:27:48.161Z,97112.20
2019-04-25T12:28:54.730Z,97115.27
2019-04-25T12:29:55.150Z,97115.27
2019-04-25T12:30:59.586Z,97127.82
2019-04-25T12:32:03.923Z,97117.03
2019-04-25T12:33:19.133Z,97111.94
2019-04-25T12:34:16.952Z,97112.13
2019-04-25T12:35:24.209Z,97121.13
2019-04-25T12:36:27.680Z,97121.13
2019-04-25T12:37:30.643Z,97103.62
2019-04-25T12:38:35.349Z,97097.41
2019-04-25T12:39:38.666Z,97110.83
2019-04-25T12:40:44.570Z,97099.98
2019-04-25T12:41:49.050Z,97102.82
2019-04-25T12:42:52.206Z,97100.83
2019-04-25T12:44:11.953Z,97083.84
2019-04-25T12:45:37.080Z,97085.97
2019-04-25T12:46:43.679Z,97089.69
2019-04-25T12:47:48.944Z,97075.40
2019-04-25T12:48:51.832Z,97083.12
2019-04-25T12:49:56.042Z,97077.28
2019-04-25T12:50:59.333Z,97072.05
2019-04-25T12:52:02.645Z,97075.67
2019-04-25T12:53:05.350Z,97071.44
2019-04-25T12:54:08.297Z,97073.51
2019-04-25T12:55:13.822Z,97085.25
2019-04-25T12:56:20.359Z,97063.76
2019-04-25T12:57:22.009Z,97063.76
2019-04-25T12:58:29.280Z,97077.06
2019-04-25T12:59:35.428Z,97072.94
2019-04-25T13:00:47.933Z,97080.82
2019-04-25T13:01:43.449Z,97080.82
2019-04-25T13:02:49.632Z,97058.23
2019-04-25T13:03:54.361Z,97060.57
2019-04-25T13:05:05.559Z,97085.38
2019-04-25T13:06:10.628Z,97085.38
2019-04-25T13:07:17.360Z,97082.16
2019-04-25T13:08:24.251Z,97078.95
2019-04-25T13:09:27.345Z,97078.95
2019-04-25T13:10:30.723Z,97068.22
2019-04-25T13:11:35.211Z,97068.48
2019-04-25T13:12:38.085Z,97050.33
2019-04-25T13:13:43.561Z,97055.06
2019-04-25T13:14:46.344Z,97036.37
2019-04-25T13:15:50.941Z,97053.92
2019-04-25T13:16:53.829Z,97053.92
2019-04-25T13:17:59.576Z,97057.25
2019-04-25T13:19:12.673Z,97062.67
2019-04-25T13:20:07.578Z,97050.36
2019-04-25T13:21:13.669Z,97050.36
2019-04-25T13:22:17.175Z,97046.02
2019-04-25T13:23:20.429Z,97049.52
2019-04-25T13:24:28.393Z,97049.52
2019-04-25T13:25:31.052Z,97052.64